createdAt,value
2023-01-20T00:01:55.369Z,98752.94
2023-01-20T00:04:42.502Z,98748.69
2023-01-20T00:07:29.741Z,98753.66
2023-01-20T00:10:17.880Z,98754.50
2023-01-20T00:13:06.185Z,98761.16
2023-01-20T00:15:53.366Z,98760.34
2023-01-20T00:18:41.465Z,98764.53
2023-01-20T00:21:29.056Z,98763.88
2023-01-20T00:24:16.572Z,98774.00
2023-01-20T00:27:03.632Z,98767.31
2023-01-20T00:29:52.553Z,98774.09
2023-01-20T00:32:44.735Z,98775.00
2023-01-20T00:35:31.981Z,98776.72
2023-01-20T00:38:19.085Z,98779.16
2023-01-20T00:41:06.993Z,98789.28
2023-01-20T00:43:54.484Z,98786.75
2023-01-20T00:46:42.932Z,98791.81
2023-01-20T00:49:30.087Z,98790.09
2023-01-20T00:52:18.766Z,98796.00
2023-01-20T00:55:07.047Z,98798.59
2023-01-20T00:57:54.193Z,98797.78
2023-01-20T01:00:41.541Z,98812.09
2023-01-20T01:03:30.691Z,98810.44
2023-01-20T01:06:19.063Z,98817.16
2023-01-20T01:09:06.453Z,98812.19
2023-01-20T01:11:53.465Z,98823.13
2023-01-20T01:14:40.559Z,98827.47
2023-01-20T01:17:27.669Z,98829.06
2023-01-20T01:20:16.232Z,98835.78
2023-01-20T01:23:03.586Z,98830.72
2023-01-20T01:25:50.736Z,98834.06
2023-01-20T01:28:38.297Z,98845.03
2023-01-20T01:31:25.515Z,98842.41
2023-01-20T01:34:12.617Z,98846.66
2023-01-20T01:37:01.406Z,98866.03
2023-01-20T01:39:48.570Z,98851.75
2023-01-20T01:42:35.536Z,98858.50
2023-01-20T01:45:28.899Z,98866.09
2023-01-20T01:48:16.483Z,98868.72
2023-01-20T01:51:09.229Z,98865.38
2023-01-20T01:54:03.738Z,98868.88
2023-01-20T01:56:52.359Z,98868.06
2023-01-20T01:59:40.408Z,98876.56
2023-01-20T02:02:28.019Z,98867.25
2023-01-20T02:05:17.098Z,98868.06
2023-01-20T02:08:05.596Z,98875.72
2023-01-20T02:10:54.381Z,98869.88
2023-01-20T02:13:42.178Z,98867.25
2023-01-20T02:16:41.670Z,98879.91
2023-01-20T02:20:25.503Z,98876.56
2023-01-20T02:23:33.934Z,98879.91
2023-01-20T02:26:47.218Z,98888.41
2023-01-20T02:30:22.802Z,98882.53
2023-01-20T02:33:15.077Z,98890.13
2023-01-20T02:36:08.929Z,98894.41
2023-01-20T02:39:02.092Z,98890.22
2023-01-20T02:41:59.044Z,98896.97
2023-01-20T02:44:54.943Z,98903.69
2023-01-20T02:47:51.741Z,98907.94
2023-01-20T02:51:04.377Z,98902.88
2023-01-20T02:53:56.449Z,98904.56
2023-01-20T02:56:44.515Z,98899.47
2023-01-20T02:59:36.110Z,98902.00
2023-01-20T03:02:27.538Z,98907.88
2023-01-20T03:05:21.651Z,98908.66
2023-01-20T03:08:14.094Z,98907.88
2023-01-20T03:11:06.593Z,98917.91
2023-01-20T03:14:00.838Z,98917.91
2023-01-20T03:16:50.397Z,98930.50
2023-01-20T03:19:37.606Z,98933.13
2023-01-20T03:22:25.214Z,98934.84
2023-01-20T03:25:16.348Z,98939.91
2023-01-20T03:28:04.573Z,98938.19
2023-01-20T03:30:52.122Z,98941.53
2023-01-20T03:33:39.764Z,98939.81
2023-01-20T03:36:30.743Z,98949.97
2023-01-20T03:39:18.526Z,98941.47
2023-01-20T03:42:13.967Z,98957.47
2023-01-20T03:45:11.955Z,98955.03
2023-01-20T03:48:07.908Z,98955.91
2023-01-20T03:50:58.701Z,98967.78
2023-01-20T03:53:50.416Z,98959.34
2023-01-20T03:56:43.759Z,98957.72
2023-01-20T03:59:36.250Z,98960.31
2023-01-20T04:02:25.255Z,98962.13
2023-01-20T04:05:13.197Z,98966.38
2023-01-20T04:08:05.328Z,98966.41
2023-01-20T04:10:53.760Z,98966.50
2023-01-20T04:13:40.674Z,98969.03
2023-01-20T04:16:29.251Z,98969.19
2023-01-20T04:19:16.470Z,98972.53
2023-01-20T04:22:09.355Z,98973.47
2023-01-20T04:25:02.972Z,98977.69
2023-01-20T04:27:50.714Z,98977.84
2023-01-20T04:30:38.017Z,98990.50
2023-01-20T04:33:26.546Z,98986.34
2023-01-20T04:36:13.880Z,98995.66
2023-01-20T04:39:00.942Z,98993.13
2023-01-20T04:41:48.203Z,98993.22
2023-01-20T04:44:35.638Z,98994.91
2023-01-20T04:47:22.802Z,98995.88
2023-01-20T04:50:14.749Z,98988.28
2023-01-20T04:53:01.984Z,99000.13
2023-01-20T04:55:48.995Z,99008.53
2023-01-20T04:58:36.210Z,99013.59
2023-01-20T05:01:23.684Z,99007.72
2023-01-20T05:04:10.911Z,99011.97
2023-01-20T05:06:59.302Z,99017.84
2023-01-20T05:09:46.790Z,99021.28
2023-01-20T05:12:33.972Z,99026.34
2023-01-20T05:15:20.966Z,99024.78
2023-01-20T05:18:08.103Z,99024.78
2023-01-20T05:20:55.307Z,99030.75
2023-01-20T05:23:43.819Z,99033.41
2023-01-20T05:26:31.215Z,99035.06
2023-01-20T05:29:18.417Z,99034.31
2023-01-20T05:32:06.314Z,99044.44
2023-01-20T05:34:53.598Z,99050.47
2023-01-20T05:37:40.977Z,99057.31
2023-01-20T05:40:29.375Z,99052.41
2023-01-20T05:43:16.402Z,99051.59
2023-01-20T05:46:04.025Z,99061.78
2023-01-20T05:48:51.303Z,99066.91
2023-01-20T05:51:38.532Z,99070.34
2023-01-20T05:54:26.236Z,99069.59
2023-01-20T05:57:18.275Z,99078.97
2023-01-20T06:00:08.739Z,99074.81
2023-01-20T06:02:56.340Z,99077.34
2023-01-20T06:05:43.375Z,99080.75
2023-01-20T06:08:30.932Z,99081.56
2023-01-20T06:11:18.279Z,99095.16
2023-01-20T06:14:06.847Z,99099.38
2023-01-20T06:16:54.020Z,99105.31
2023-01-20T06:19:41.154Z,99111.28
2023-01-20T06:22:28.612Z,99114.78
2023-01-20T06:25:16.505Z,99112.31
2023-01-20T06:28:03.610Z,99112.41
2023-01-20T06:30:52.216Z,99109.09
2023-01-20T06:33:39.609Z,99119.31
2023-01-20T06:36:27.016Z,99124.38
2023-01-20T06:39:14.159Z,99128.66
2023-01-20T06:42:02.089Z,99132.09
2023-01-20T06:44:49.354Z,99135.53
2023-01-20T06:47:37.994Z,99133.06
2023-01-20T06:50:25.261Z,99138.13
2023-01-20T06:53:12.590Z,99135.66
2023-01-20T06:56:01.595Z,99143.28
2023-01-20T06:58:48.947Z,99156.88
2023-01-20T07:01:35.950Z,99149.34
2023-01-20T07:04:24.374Z,99155.38
2023-01-20T07:07:13.821Z,99163.00
2023-01-20T07:10:01.199Z,99171.56
2023-01-20T07:12:48.281Z,99166.63
2023-01-20T07:15:35.466Z,99175.94
2023-01-20T07:18:22.542Z,99182.75
2023-01-20T07:21:12.541Z,99182.03
2023-01-20T07:24:02.460Z,99180.34
2023-01-20T07:26:49.495Z,99189.72
2023-01-20T07:29:38.055Z,99186.41
2023-01-20T07:32:25.095Z,99193.19
2023-01-20T07:35:13.013Z,99199.06
2023-01-20T07:38:01.803Z,99201.66
2023-01-20T07:40:49.273Z,99205.00
2023-01-20T07:43:36.662Z,99210.97
2023-01-20T07:46:24.036Z,99209.34
2023-01-20T07:49:12.921Z,99212.75
2023-01-20T07:52:00.346Z,99222.84
2023-01-20T07:54:49.058Z,99216.16
2023-01-20T07:57:36.061Z,99221.28
2023-01-20T08:00:24.886Z,99226.41
2023-01-20T08:03:12.767Z,99223.06
2023-01-20T08:06:03.644Z,99229.81
2023-01-20T08:08:51.320Z,99238.31
2023-01-20T08:11:39.949Z,99252.66
2023-01-20T08:14:27.413Z,99240.88
2023-01-20T08:17:14.779Z,99246.00
2023-01-20T08:20:02.172Z,99246.91
2023-01-20T08:22:49.581Z,99240.13
2023-01-20T08:25:36.906Z,99251.00
2023-01-20T08:28:25.500Z,99246.78
2023-01-20T08:31:15.418Z,99251.78
2023-01-20T08:34:02.624Z,99261.00
2023-01-20T08:36:50.221Z,99264.34
2023-01-20T08:39:37.391Z,99269.34
2023-01-20T08:42:24.462Z,99260.06
2023-01-20T08:45:13.716Z,99266.75
2023-01-20T08:48:01.148Z,99275.09
2023-01-20T08:50:48.197Z,99277.63
2023-01-20T08:53:35.790Z,99275.09
2023-01-20T08:56:23.918Z,99279.22
2023-01-20T08:59:12.462Z,99284.22
2023-01-20T09:02:00.920Z,99280.81
2023-01-20T09:04:50.147Z,99281.59
2023-01-20T09:07:37.428Z,99279.88
2023-01-20T09:10:24.933Z,99284.91
2023-01-20T09:13:12.221Z,99289.94
2023-01-20T09:15:59.164Z,99294.09
2023-01-20T09:18:47.810Z,99294.84
2023-01-20T09:21:35.030Z,99294.72
2023-01-20T09:24:22.599Z,99300.56
2023-01-20T09:27:09.919Z,99299.59
2023-01-20T09:29:56.882Z,99309.59
2023-01-20T09:32:43.977Z,99313.69
2023-01-20T09:35:32.332Z,99310.22
2023-01-20T09:38:37.145Z,99321.94
2023-01-20T09:41:47.599Z,99324.31
2023-01-20T09:44:53.678Z,99336.03
2023-01-20T09:47:47.988Z,99325.84
2023-01-20T09:51:05.413Z,99322.44
2023-01-20T09:54:00.079Z,99331.59
2023-01-20T09:56:50.934Z,99330.63
2023-01-20T09:59:43.444Z,99322.97
2023-01-20T10:02:35.633Z,99327.97
2023-01-20T10:05:32.973Z,99330.50
2023-01-20T10:08:28.158Z,99336.31
2023-01-20T10:11:19.833Z,99334.63
2023-01-20T10:14:17.090Z,99326.97
2023-01-20T10:17:13.870Z,99336.13
2023-01-20T10:20:08.065Z,99330.13
2023-01-20T10:23:02.598Z,99329.22
2023-01-20T10:26:00.426Z,99335.03
2023-01-20T10:28:53.204Z,99339.97
2023-01-20T10:31:46.966Z,99336.47
2023-01-20T10:34:42.925Z,99339.72
2023-01-20T10:37:32.970Z,99336.25
2023-01-20T10:40:35.095Z,99329.38
2023-01-20T10:43:24.266Z,99330.13
2023-01-20T10:46:43.599Z,99331.69
2023-01-20T10:49:49.519Z,99332.44
2023-01-20T10:52:55.206Z,99335.72
2023-01-20T10:55:58.315Z,99338.22
2023-01-20T10:58:47.713Z,99340.69
2023-01-20T11:01:36.682Z,99340.53
2023-01-20T11:04:24.229Z,99337.94
2023-01-20T11:07:17.683Z,99335.31
2023-01-20T11:10:17.062Z,99341.16
2023-01-20T11:13:05.092Z,99341.22
2023-01-20T11:15:57.875Z,99350.41
2023-01-20T11:18:56.701Z,99346.06
2023-01-20T11:21:43.947Z,99349.38
2023-01-20T11:24:43.839Z,99348.47
2023-01-20T11:27:36.654Z,99346.69
2023-01-20T11:30:30.404Z,99354.31
2023-01-20T11:33:23.404Z,99351.78
2023-01-20T11:36:19.932Z,99341.63
2023-01-20T11:39:25.716Z,99349.22
2023-01-20T11:42:17.622Z,99345.81
2023-01-20T11:45:20.908Z,99347.44
2023-01-20T11:48:21.731Z,99351.63
2023-01-20T11:51:22.227Z,99338.88
2023-01-20T11:54:15.629Z,99335.47
2023-01-20T11:57:07.653Z,99340.47
2023-01-20T11:59:54.927Z,99331.91
2023-01-20T12:02:42.226Z,99336.88
2023-01-20T12:05:40.653Z,99335.13
2023-01-20T12:08:35.402Z,99339.28
2023-01-20T12:11:29.012Z,99340.94
2023-01-20T12:14:25.447Z,99337.50
2023-01-20T12:17:22.344Z,99338.31
2023-01-20T12:20:17.819Z,99337.34
2023-01-20T12:23:21.483Z,99337.28
2023-01-20T12:26:10.571Z,99339.00
2023-01-20T12:29:03.351Z,99334.72
2023-01-20T12:31:51.017Z,99328.78
2023-01-20T12:34:42.643Z,99335.53
2023-01-20T12:37:40.451Z,99339.69
2023-01-20T12:40:41.847Z,99342.31
2023-01-20T12:43:51.087Z,99349.91
2023-01-20T12:46:43.575Z,99349.00
2023-01-20T12:49:53.224Z,99349.84
2023-01-20T12:52:53.452Z,99345.59
2023-01-20T12:55:57.178Z,99342.16
2023-01-20T12:58:56.562Z,99346.34
2023-01-20T13:02:00.409Z,99354.75
2023-01-20T13:05:15.411Z,99350.50
2023-01-20T13:08:16.659Z,99349.63
2023-01-20T13:11:18.102Z,99352.00
2023-01-20T13:14:15.627Z,99347.78
2023-01-20T13:17:09.664Z,99346.84
2023-01-20T13:20:00.813Z,99351.03
2023-01-20T13:22:48.151Z,99354.34
2023-01-20T13:25:36.387Z,99360.16
2023-01-20T13:28:28.875Z,99355.09
2023-01-20T13:31:48.936Z,99364.34
2023-01-20T13:34:40.849Z,99366.00
2023-01-20T13:37:32.051Z,99360.84
2023-01-20T13:40:56.407Z,99361.66
2023-01-20T13:43:54.237Z,99359.03
2023-01-20T13:46:50.112Z,99363.22
2023-01-20T13:49:54.575Z,99366.59
2023-01-20T13:53:30.347Z,99357.34
2023-01-20T13:56:32.893Z,99358.16
2023-01-20T13:59:21.307Z,99365.75
2023-01-20T14:02:18.728Z,99359.03
2023-01-20T14:05:20.810Z,99364.13
2023-01-20T14:08:15.259Z,99373.38
2023-01-20T14:11:13.531Z,99367.56
2023-01-20T14:14:05.453Z,99369.19
2023-01-20T14:16:54.593Z,99374.25
2023-01-20T14:19:41.697Z,99372.56
2023-01-20T14:22:32.215Z,99376.75
2023-01-20T14:25:26.448Z,99381.81
2023-01-20T14:28:20.872Z,99380.09
2023-01-20T14:31:22.139Z,99380.91
2023-01-20T14:34:30.433Z,99378.38
2023-01-20T14:37:29.040Z,99378.38
2023-01-20T14:40:25.533Z,99380.09
2023-01-20T14:43:19.573Z,99382.63
2023-01-20T14:46:07.327Z,99378.44
2023-01-20T14:48:56.229Z,99388.59
2023-01-20T14:51:46.656Z,99391.97
2023-01-20T14:54:44.572Z,99393.66
2023-01-20T14:57:33.784Z,99392.84
2023-01-20T15:00:27.394Z,99394.50
2023-01-20T15:03:20.638Z,99398.72
2023-01-20T15:06:21.161Z,99394.53
2023-01-20T15:09:29.806Z,99397.06
2023-01-20T15:12:36.011Z,99400.47
2023-01-20T15:15:31.665Z,99403.81
2023-01-20T15:18:23.122Z,99410.59
2023-01-20T15:21:24.181Z,99412.28
2023-01-20T15:24:14.919Z,99412.28
2023-01-20T15:27:18.625Z,99409.75
2023-01-20T15:30:18.821Z,99416.56
2023-01-20T15:33:09.725Z,99415.81
2023-01-20T15:35:59.680Z,99416.63
2023-01-20T15:38:46.992Z,99418.34
2023-01-20T15:41:34.035Z,99421.69
2023-01-20T15:44:22.818Z,99421.69
2023-01-20T15:47:21.697Z,99431.03
2023-01-20T15:50:17.365Z,99431.06
2023-01-20T15:53:06.403Z,99437.94
2023-01-20T15:55:53.840Z,99442.25
2023-01-20T15:58:41.276Z,99441.38
2023-01-20T16:01:30.442Z,99447.38
2023-01-20T16:04:17.485Z,99445.69
2023-01-20T16:07:04.601Z,99450.75
2023-01-20T16:09:52.035Z,99459.19
2023-01-20T16:12:39.044Z,99463.44
2023-01-20T16:15:26.196Z,99459.31
2023-01-20T16:18:17.520Z,99459.31
2023-01-20T16:21:04.904Z,99460.22
2023-01-20T16:23:52.387Z,99470.41
2023-01-20T16:26:39.776Z,99462.81
2023-01-20T16:29:27.296Z,99461.16
2023-01-20T16:32:17.131Z,99457.81
2023-01-20T16:35:07.870Z,99462.03
2023-01-20T16:37:55.019Z,99469.66
2023-01-20T16:40:48.377Z,99476.44
2023-01-20T16:43:36.006Z,99468.84
2023-01-20T16:46:25.843Z,99470.69
2023-01-20T16:49:13.281Z,99479.13
2023-01-20T16:52:02.006Z,99477.41
2023-01-20T16:54:49.294Z,99480.75
2023-01-20T16:57:36.562Z,99479.94
2023-01-20T17:00:24.253Z,99486.72
2023-01-20T17:03:11.371Z,99489.34
2023-01-20T17:05:59.910Z,99494.41
2023-01-20T17:08:51.161Z,99492.75
2023-01-20T17:11:41.024Z,99496.09
2023-01-20T17:14:28.437Z,99497.75
2023-01-20T17:17:15.632Z,99502.00
2023-01-20T17:20:02.660Z,99498.63
2023-01-20T17:22:52.851Z,99511.31
2023-01-20T17:25:41.849Z,99504.53
2023-01-20T17:28:29.447Z,99502.91
2023-01-20T17:31:16.638Z,99505.44
2023-01-20T17:34:04.542Z,99523.16
2023-01-20T17:36:51.910Z,99523.97
2023-01-20T17:39:39.013Z,99510.41
2023-01-20T17:42:27.421Z,99528.97
2023-01-20T17:45:14.590Z,99532.34
2023-01-20T17:48:04.282Z,99528.97
2023-01-20T17:50:51.925Z,99536.59
2023-01-20T17:53:38.915Z,99544.19
2023-01-20T17:56:27.203Z,99549.25
2023-01-20T17:59:15.838Z,99546.72
2023-01-20T18:02:03.172Z,99556.06
2023-01-20T18:04:50.186Z,99555.25
2023-01-20T18:07:37.864Z,99560.31
2023-01-20T18:10:25.012Z,99567.16
2023-01-20T18:13:11.894Z,99562.13
2023-01-20T18:16:05.508Z,99568.94
2023-01-20T18:18:53.624Z,99575.69
2023-01-20T18:21:42.635Z,99576.53
2023-01-20T18:24:30.165Z,99578.16
2023-01-20T18:27:18.823Z,99580.69
2023-01-20T18:30:10.493Z,99581.53
2023-01-20T18:32:59.426Z,99583.31
2023-01-20T18:35:46.680Z,99577.34
2023-01-20T18:38:33.863Z,99589.22
2023-01-20T18:41:22.189Z,99584.97
2023-01-20T18:44:09.768Z,99579.06
2023-01-20T18:46:57.099Z,99581.59
2023-01-20T18:49:45.950Z,99585.84
2023-01-20T18:52:32.889Z,99579.97
2023-01-20T18:55:19.949Z,99580.84
2023-01-20T18:58:08.538Z,99584.25
2023-01-20T19:00:55.800Z,99580.13
2023-01-20T19:03:43.085Z,99576.78
2023-01-20T19:06:34.436Z,99583.56
2023-01-20T19:09:21.533Z,99580.19
2023-01-20T19:12:09.041Z,99586.91
2023-01-20T19:14:56.213Z,99583.56
2023-01-20T19:17:43.319Z,99582.66
2023-01-20T19:20:30.472Z,99586.03
2023-01-20T19:23:19.141Z,99582.66
2023-01-20T19:26:08.522Z,99596.19
2023-01-20T19:29:00.049Z,99588.66
2023-01-20T19:31:47.414Z,99587.81
2023-01-20T19:34:34.657Z,99592.06
2023-01-20T19:37:21.793Z,99591.22
2023-01-20T19:40:12.363Z,99592.94
2023-01-20T19:43:00.800Z,99604.78
2023-01-20T19:45:47.982Z,99595.53
2023-01-20T19:48:35.723Z,99601.41
2023-01-20T19:51:23.390Z,99593.00
2023-01-20T19:54:14.415Z,99596.41
2023-01-20T19:57:03.165Z,99597.31
2023-01-20T19:59:51.954Z,99598.13
2023-01-20T20:02:40.956Z,99597.31
2023-01-20T20:05:28.134Z,99603.28
2023-01-20T20:08:15.149Z,99606.69
2023-01-20T20:11:02.351Z,99600.81
2023-01-20T20:13:54.758Z,99602.44
2023-01-20T20:16:42.633Z,99604.22
2023-01-20T20:19:29.626Z,99604.22
2023-01-20T20:22:16.850Z,99615.19
2023-01-20T20:25:05.769Z,99610.97
2023-01-20T20:27:52.907Z,99614.44
2023-01-20T20:30:42.234Z,99616.13
2023-01-20T20:33:29.255Z,99622.03
2023-01-20T20:36:17.005Z,99624.56
2023-01-20T20:39:05.384Z,99622.91
2023-01-20T20:41:52.329Z,99617.84
2023-01-20T20:44:40.276Z,99629.72
2023-01-20T20:47:29.145Z,99625.44
2023-01-20T20:50:17.261Z,99624.59
2023-01-20T20:53:04.413Z,99625.44
2023-01-20T20:55:55.308Z,99621.25
2023-01-20T20:59:00.109Z,99623.78
2023-01-20T21:01:48.429Z,99630.63
2023-01-20T21:04:36.746Z,99619.72
2023-01-20T21:07:24.194Z,99634.88
2023-01-20T21:10:15.631Z,99638.25
2023-01-20T21:13:06.957Z,99639.88
2023-01-20T21:15:59.603Z,99644.19
2023-01-20T21:18:47.263Z,99639.13
2023-01-20T21:21:35.995Z,99642.53
2023-01-20T21:24:26.126Z,99654.38
2023-01-20T21:27:13.463Z,99658.56
2023-01-20T21:30:00.677Z,99657.75
2023-01-20T21:32:47.774Z,99664.47
2023-01-20T21:35:38.812Z,99667.88
2023-01-20T21:38:27.676Z,99666.22
2023-01-20T21:41:16.442Z,99653.53
2023-01-20T21:44:21.041Z,99671.22
2023-01-20T21:47:08.864Z,99662.81
2023-01-20T21:50:13.659Z,99669.59
2023-01-20T21:53:00.528Z,99672.94
2023-01-20T21:55:48.833Z,99667.13
2023-01-20T21:58:36.247Z,99673.06
2023-01-20T22:01:23.663Z,99673.88
2023-01-20T22:04:10.806Z,99678.13
2023-01-20T22:06:58.232Z,99683.22
2023-01-20T22:09:45.225Z,99683.22
2023-01-20T22:12:34.738Z,99686.56
2023-01-20T22:15:22.049Z,99689.94
2023-01-20T22:18:09.097Z,99685.69
2023-01-20T22:20:56.250Z,99690.75
2023-01-20T22:23:43.382Z,99697.47
2023-01-20T22:26:30.480Z,99700.00
2023-01-20T22:29:19.466Z,99713.56
2023-01-20T22:32:06.869Z,99716.09
2023-01-20T22:34:54.716Z,99712.75
2023-01-20T22:37:41.826Z,99715.28
2023-01-20T22:40:28.950Z,99728.81
2023-01-20T22:43:16.222Z,99722.88
2023-01-20T22:46:05.631Z,99727.09
2023-01-20T22:48:52.841Z,99717.03
2023-01-20T22:51:40.314Z,99727.16
2023-01-20T22:54:27.511Z,99727.97
2023-01-20T22:57:14.556Z,99724.63
2023-01-20T23:00:01.776Z,99736.41
2023-01-20T23:02:50.422Z,99739.84
2023-01-20T23:05:39.575Z,99744.09
2023-01-20T23:08:30.082Z,99740.72
2023-01-20T23:11:20.260Z,99747.44
2023-01-20T23:14:10.574Z,99751.63
2023-01-20T23:16:58.248Z,99750.03
2023-01-20T23:19:46.642Z,99750.84
2023-01-20T23:22:34.009Z,99755.03
2023-01-20T23:25:21.357Z,99752.50
2023-01-20T23:28:08.536Z,99757.56
2023-01-20T23:31:02.540Z,99757.56
2023-01-20T23:33:50.529Z,99754.28
2023-01-20T23:36:39.203Z,99759.34
2023-01-20T23:39:26.714Z,99763.56
2023-01-20T23:42:13.819Z,99763.56
2023-01-20T23:45:01.030Z,99763.56
2023-01-20T23:47:47.959Z,99766.09
2023-01-20T23:50:35.995Z,99777.09
2023-01-20T23:53:24.531Z,99777.97
2023-01-20T23:56:14.482Z,99784.72
2023-01-20T23:59:01.779Z,99782.19
